Accueil
METAR-TAF:

METAR-TAF

Aéroports :

Aéroport de Paris-Le Bourget

Paris, France

latitude: 48-58N, longitude: 002-27E, altitude: 66 m

Observation

Le bulletin a été fait il y a 40 minutes, à 10:00 UTC
Vent 12 kt de est/nord-est
Température 5°C
Humidité 65%
Pression 1023 hPa
Visibilité 10 km ou plus
pas de nuages en-dessous de 1500 mètres et pas de cumulonimbus.

METAR: LFPB 181000Z AUTO 07012KT CAVOK 05/M01 Q1023 NOSIG

Heure: 11:40 (10:40 UTC)

Prévision

Le bulletin a été fait il y a 5 heures et 40 minutes, à 05:00 UTC
Prévision valable du 18 à 06 UTC au 19 à 06 UTC
Vent 8 kt de est/nord-est
Visibilité 10 km ou plus
pas de nuages en-dessous de 1500 mètres et pas de cumulonimbus.

TAF: LFPB 180500Z 1806/1906 06008KT CAVOK

Observations et prévisions météorologiques de plus de 4000 aéroports (messages METAR et TAF).

Les stations disponibles sont représentées par des disques jaunes et rouges sur la carte.

Passer la souris dessus pour voir le nom de la station.

Cliquer dessus pour voir les observations et prévisions météorologiques.

Pour changer de carte: cliquez sur les boutons verts avec une croix noire pour zoomer, sur le bouton vert avec un tiret pour effectuer un zoom arrière, ou sur les flèches vertes pour les cartes adjacentes.


METAR-TAF: